Beaver Dam, Kentucky
Current Conditions -  °F | °C
As of 9:56 AM on Sunday 23 Nov 2014 (Local Time) from KOWB Reporting Station
Overcast Overcast  
Wind Chill: 55°   Ceiling: 2500
Heat Index: 55°   Visibility: 10mi
Dew Point: 49°   Wind: 8mph
Humidity: 80%   Direction: 140°SE
Pressure: 29.79"   Gusts: NA
Location:  37.4°N, 86.88°W
Report Text: KOWB 231556Z 14007KT 10SM OVC025 13/09 A2979 RMK AO2 T01270094 RAE45 P0000 SLP087
Loading
Personal Weather Stations






























Interactive Weather Map New forecast layout! Learn more

10-Day Weather Forecast

Advertisements
Track Severe Weather on mobile